Time;durP1;ratioP1;P1;durP2;ratioP2;P2;SDS_P1;SDS_P2;PMS_P1;PMS_P2;Temp;Humidity;BMP_temperature;BMP_pressure;BME280_temperature;BME280_humidity;BME280_pressure;Samples;Min_cycle;Max_cycle;Signal;HPM_P1;HPM_P2
2021/11/05 00:01:16;;;;;;;;;;;;;;;30.04;68.43;100935.75;5084515;27;70283;-34
2021/11/05 00:03:47;;;;;;;;;;;;;;;30.15;67.77;100940.50;5091425;27;66280;-34
2021/11/05 00:06:18;;;;;;;;;;;;;;;30.20;67.80;100946.13;5077469;27;69528;-35
2021/11/05 00:08:49;;;;;;;;;;;;;;;30.06;69.22;100955.28;5075101;27;66916;-38
2021/11/05 00:11:19;;;;;;;;;;;;;;;30.06;69.54;100949.88;5096364;27;69508;-36
2021/11/05 00:13:49;;;;;;;;;;;;;;;30.08;69.26;100947.81;5096692;27;66614;-36
2021/11/05 00:16:22;;;;;;;;;;;;;;;30.10;69.65;100956.53;5083412;27;70043;-37
2021/11/05 00:18:53;;;;;;;;;;;;;;;30.10;70.04;100966.53;5096087;27;66260;-36
2021/11/05 00:21:23;;;;;;;;;;;;;;;30.17;69.68;100956.50;5086098;27;69818;-35
2021/11/05 00:23:55;;;;;;;;;;;;;;;30.03;69.78;100961.13;5098329;27;66861;-35
2021/11/05 00:26:34;;;;;;;;;;;;;;;29.93;69.10;100960.75;5088038;27;70299;-35
2021/11/05 00:29:07;;;;;;;;;;;;;;;29.90;69.14;100966.59;5096240;27;65848;-35
2021/11/05 00:31:53;;;;;;;;;;;;;;;29.92;68.87;100964.50;5098248;27;70114;-36
2021/11/05 00:34:43;;;;;;;;;;;;;;;29.94;68.54;100965.13;5096100;27;66678;-34
2021/11/05 00:38:00;;;;;;;;;;;;;;;29.95;68.38;100955.94;5082974;27;68717;-35
2021/11/05 00:40:34;;;;;;;;;;;;;;;29.96;68.02;100958.47;5074053;27;65640;-35
2021/11/05 00:43:56;;;;;;;;;;;;;;;30.00;68.00;100956.16;5069484;27;70224;-35
2021/11/05 00:46:40;;;;;;;;;;;;;;;30.01;67.63;100963.25;5080581;27;64737;-35
2021/11/05 00:49:23;;;;;;;;;;;;;;;30.01;67.67;100952.41;5097584;27;69797;-35
2021/11/05 00:52:24;;;;;;;;;;;;;;;30.04;67.23;100954.69;5085814;27;67005;-35
2021/11/05 00:54:59;;;;;;;;;;;;;;;30.04;67.04;100954.69;5096291;27;70142;-35
2021/11/05 00:57:44;;;;;;;;;;;;;;;30.05;67.05;100953.66;5068241;27;66175;-34
2021/11/05 01:00:32;;;;;;;;;;;;;;;30.08;66.89;100961.31;5043493;28;69251;-35
2021/11/05 01:03:24;;;;;;;;;;;;;;;30.09;66.59;100954.91;5076221;27;66854;-35
2021/11/05 01:06:13;;;;;;;;;;;;;;;30.10;66.62;100966.53;5065836;27;69832;-36
2021/11/05 01:08:57;;;;;;;;;;;;;;;30.11;66.61;100969.00;5074796;27;67339;-35
2021/11/05 01:11:49;;;;;;;;;;;;;;;30.12;66.41;100962.59;5077174;27;70115;-35
2021/11/05 01:14:39;;;;;;;;;;;;;;;30.14;66.77;100974.00;5068223;27;66037;-34
2021/11/05 01:17:32;;;;;;;;;;;;;;;30.15;66.27;100975.69;5075033;27;70326;-34
2021/11/05 01:20:31;;;;;;;;;;;;;;;30.17;66.44;100972.75;5074263;27;66684;-34
2021/11/05 01:23:30;;;;;;;;;;;;;;;30.19;66.73;100976.06;5077134;27;69046;-35
2021/11/05 01:26:16;;;;;;;;;;;;;;;30.20;66.47;100967.75;5062396;27;66233;-34
2021/11/05 01:29:05;;;;;;;;;;;;;;;30.22;66.49;100972.97;5073614;27;69898;-35
2021/11/05 01:31:56;;;;;;;;;;;;;;;30.23;66.01;100977.34;5057149;28;66796;-35
2021/11/05 01:34:53;;;;;;;;;;;;;;;30.24;66.38;100985.25;5075325;27;69791;-35
2021/11/05 01:37:43;;;;;;;;;;;;;;;30.26;65.99;100982.34;5059042;27;66870;-36
2021/11/05 01:40:33;;;;;;;;;;;;;;;30.27;66.25;100984.00;5064093;27;69159;-36
2021/11/05 01:43:22;;;;;;;;;;;;;;;30.27;66.11;100987.53;5060085;27;66484;-34
2021/11/05 01:46:21;;;;;;;;;;;;;;;30.30;65.89;100983.56;5075124;27;69800;-35
2021/11/05 01:49:07;;;;;;;;;;;;;;;30.32;65.84;100980.66;5054965;28;65504;-35
2021/11/05 01:51:55;;;;;;;;;;;;;;;30.33;65.72;100988.53;5076123;27;69814;-36
2021/11/05 01:54:56;;;;;;;;;;;;;;;30.35;65.92;100981.03;5054554;28;66417;-36
2021/11/05 01:58:25;;;;;;;;;;;;;;;30.36;65.78;100977.28;4985960;28;69335;-35
2021/11/05 02:01:02;;;;;;;;;;;;;;;30.39;65.98;100984.13;4994704;28;66193;-35
2021/11/05 02:03:58;;;;;;;;;;;;;;;30.40;65.94;100983.94;4993099;28;69159;-35
2021/11/05 02:07:12;;;;;;;;;;;;;;;30.42;65.56;100986.41;4980783;28;66310;-35
2021/11/05 02:09:57;;;;;;;;;;;;;;;30.44;65.93;100984.34;4981743;28;70966;-35
2021/11/05 02:12:49;;;;;;;;;;;;;;;30.43;65.36;100971.84;4979325;28;64956;-34
2021/11/05 02:15:35;;;;;;;;;;;;;;;30.48;65.98;100977.47;4993964;28;69364;-34
2021/11/05 02:18:21;;;;;;;;;;;;;;;30.51;65.93;100979.72;4977593;28;66371;-35
2021/11/05 02:21:15;;;;;;;;;;;;;;;30.53;65.92;100977.63;4988117;28;70354;-35
2021/11/05 02:24:10;;;;;;;;;;;;;;;30.54;65.93;100976.59;4987456;28;66622;-35
2021/11/05 02:27:07;;;;;;;;;;;;;;;30.58;65.23;100977.81;5011939;28;70339;-35
2021/11/05 02:30:16;;;;;;;;;;;;;;;30.61;65.56;100971.13;5001838;28;66847;-35
2021/11/05 02:33:09;;;;;;;;;;;;;;;30.63;65.63;100972.56;4998460;28;69886;-35
2021/11/05 02:35:55;;;;;;;;;;;;;;;30.65;65.58;100964.25;5014037;28;66628;-35
2021/11/05 02:38:41;;;;;;;;;;;;;;;30.68;65.33;100963.81;5011369;28;70130;-36
2021/11/05 02:41:38;;;;;;;;;;;;;;;30.69;64.82;100950.03;5013620;28;66400;-35
2021/11/05 02:44:24;;;;;;;;;;;;;;;30.72;65.42;100955.03;4996417;28;69932;-36
2021/11/05 02:47:20;;;;;;;;;;;;;;;30.75;65.45;100955.66;4997188;28;66489;-35
2021/11/05 02:50:08;;;;;;;;;;;;;;;30.77;65.18;100956.25;5075809;27;69110;-35
2021/11/05 02:52:49;;;;;;;;;;;;;;;30.78;64.86;100960.63;5075803;27;66586;-35
2021/11/05 02:55:41;;;;;;;;;;;;;;;30.82;65.36;100951.06;5062565;27;69461;-35
2021/11/05 02:58:32;;;;;;;;;;;;;;;30.84;65.35;100951.66;5073787;27;66662;-35
2021/11/05 03:01:07;;;;;;;;;;;;;;;30.87;65.37;100956.63;5091546;27;68753;-36
2021/11/05 03:03:49;;;;;;;;;;;;;;;30.88;65.22;100961.84;5090242;27;66877;-35
2021/11/05 03:06:34;;;;;;;;;;;;;;;30.92;65.15;100948.69;5075607;27;69845;-35
2021/11/05 03:09:13;;;;;;;;;;;;;;;30.94;64.63;100955.53;5090220;27;66751;-35
2021/11/05 03:12:08;;;;;;;;;;;;;;;30.97;65.17;100951.56;5061815;27;69933;-35
2021/11/05 03:15:05;;;;;;;;;;;;;;;31.00;64.59;100951.13;5087200;27;66630;-34
2021/11/05 03:17:49;;;;;;;;;;;;;;;31.02;64.56;100943.63;5080194;27;70389;-35
2021/11/05 03:20:36;;;;;;;;;;;;;;;31.04;64.81;100952.38;5094306;27;65254;-34
2021/11/05 03:23:13;;;;;;;;;;;;;;;31.06;64.92;100939.41;5095677;27;70074;-34
2021/11/05 03:25:50;;;;;;;;;;;;;;;31.08;64.40;100942.72;5083614;27;66516;-34
2021/11/05 03:28:23;;;;;;;;;;;;;;;31.11;64.93;100942.28;5096208;27;70509;-34
2021/11/05 03:30:57;;;;;;;;;;;;;;;31.13;64.32;100934.78;5095381;27;66078;-35
2021/11/05 03:33:28;;;;;;;;;;;;;;;31.15;64.80;100932.69;5096610;27;70314;-35
2021/11/05 03:36:08;;;;;;;;;;;;;;;31.20;64.26;100933.88;5096418;27;66432;-35
2021/11/05 03:38:42;;;;;;;;;;;;;;;31.22;64.50;100942.63;5094994;27;69397;-34
2021/11/05 03:41:13;;;;;;;;;;;;;;;31.25;64.75;100934.06;5096093;27;65539;-35
2021/11/05 03:43:45;;;;;;;;;;;;;;;31.27;64.36;100935.50;5094817;27;69961;-34
2021/11/05 03:46:18;;;;;;;;;;;;;;;31.29;64.63;100921.72;5078619;27;66508;-35
2021/11/05 03:48:55;;;;;;;;;;;;;;;31.31;64.18;100919.59;5095539;27;70899;-35
2021/11/05 03:51:25;;;;;;;;;;;;;;;31.33;64.56;100912.09;5094821;27;66690;-34
2021/11/05 03:54:01;;;;;;;;;;;;;;;31.36;64.09;100906.25;5094813;27;69152;-36
2021/11/05 03:56:34;;;;;;;;;;;;;;;31.39;64.02;100900.38;5076906;27;66353;-36
2021/11/05 03:59:05;;;;;;;;;;;;;;;31.41;63.96;100892.88;5075583;27;69798;-35
2021/11/05 04:01:41;;;;;;;;;;;;;;;31.44;63.61;100891.59;5078851;27;66435;-36
2021/11/05 04:04:13;;;;;;;;;;;;;;;31.45;64.10;100883.22;5094505;27;70318;-35
2021/11/05 04:06:44;;;;;;;;;;;;;;;31.50;64.01;100893.41;5095795;27;65640;-35
2021/11/05 04:09:16;;;;;;;;;;;;;;;31.52;63.61;100881.28;5095808;27;69164;-35
2021/11/05 04:11:47;;;;;;;;;;;;;;;31.52;63.52;100870.44;5093820;27;67666;-35
2021/11/05 04:14:22;;;;;;;;;;;;;;;31.56;63.41;100868.91;5090583;27;69229;-35
2021/11/05 04:16:59;;;;;;;;;;;;;;;31.58;63.37;100866.81;5093418;27;66397;-35
2021/11/05 04:19:30;;;;;;;;;;;;;;;31.58;63.64;100861.41;5077889;27;69789;-35
2021/11/05 04:22:02;;;;;;;;;;;;;;;31.62;63.39;100856.34;5076602;27;66191;-35
2021/11/05 04:24:37;;;;;;;;;;;;;;;31.63;63.43;100849.88;5093291;27;70358;-35
2021/11/05 04:27:09;;;;;;;;;;;;;;;31.64;63.65;100842.56;5076623;27;66968;-35
2021/11/05 04:29:40;;;;;;;;;;;;;;;31.65;63.69;100844.22;5057348;28;70728;-35
2021/11/05 04:32:10;;;;;;;;;;;;;;;31.66;63.42;100835.03;5086236;27;67013;-35
2021/11/05 04:34:40;;;;;;;;;;;;;;;31.67;63.41;100833.97;5081796;27;70613;-35
2021/11/05 04:37:12;;;;;;;;;;;;;;;31.67;63.64;100833.97;5095263;27;66420;-35
2021/11/05 04:39:42;;;;;;;;;;;;;;;31.67;63.58;100833.97;5077814;27;69665;-34
2021/11/05 04:42:13;;;;;;;;;;;;;;;31.68;63.61;100827.47;5094516;27;66487;-35
2021/11/05 04:44:43;;;;;;;;;;;;;;;31.68;63.47;100828.34;5076757;27;70199;-35
2021/11/05 04:47:13;;;;;;;;;;;;;;;31.69;63.38;100829.97;5093743;27;66135;-35
2021/11/05 04:49:48;;;;;;;;;;;;;;;31.70;63.35;100825.38;5078301;27;70280;-35
2021/11/05 04:52:23;;;;;;;;;;;;;;;31.70;63.46;100820.78;5093923;27;67298;-34
2021/11/05 04:54:55;;;;;;;;;;;;;;;31.72;63.65;100817.84;5093924;27;70414;-36
2021/11/05 04:57:27;;;;;;;;;;;;;;;31.73;63.90;100805.94;5079427;27;66158;-34
2021/11/05 05:00:00;;;;;;;;;;;;;;;31.75;63.42;100811.97;5094289;27;69601;-35
2021/11/05 05:02:33;;;;;;;;;;;;;;;31.75;63.47;100795.69;5093986;27;65804;-36
2021/11/05 05:05:07;;;;;;;;;;;;;;;31.78;63.44;100789.81;5091045;27;69156;-34
2021/11/05 05:07:37;;;;;;;;;;;;;;;31.80;63.31;100790.44;5095519;27;67027;-36
2021/11/05 05:10:08;;;;;;;;;;;;;;;31.80;63.49;100783.09;5095790;27;69264;-35
2021/11/05 05:12:39;;;;;;;;;;;;;;;31.84;63.75;100778.03;5095244;27;64810;-36
2021/11/05 05:15:12;;;;;;;;;;;;;;;31.86;63.63;100775.13;5098115;27;69370;-35
2021/11/05 05:17:43;;;;;;;;;;;;;;;31.86;63.92;100775.13;5097274;27;66844;-36
2021/11/05 05:20:15;;;;;;;;;;;;;;;31.88;63.91;100762.97;5097243;27;70357;-35
2021/11/05 05:22:47;;;;;;;;;;;;;;;31.90;63.64;100760.88;5101167;27;66485;-35
2021/11/05 05:25:19;;;;;;;;;;;;;;;31.93;63.58;100754.16;5095462;27;69945;-36
2021/11/05 05:27:50;;;;;;;;;;;;;;;31.94;63.66;100745.81;5095528;27;66048;-36
2021/11/05 05:30:21;;;;;;;;;;;;;;;31.97;63.68;100745.34;5098405;27;70108;-35
2021/11/05 05:32:55;;;;;;;;;;;;;;;31.98;63.53;100747.03;5095226;27;66001;-36
2021/11/05 05:35:25;;;;;;;;;;;;;;;32.02;63.44;100740.06;5096161;27;69919;-35
2021/11/05 05:37:58;;;;;;;;;;;;;;;32.03;63.38;100733.56;5096883;27;65449;-35
2021/11/05 05:40:30;;;;;;;;;;;;;;;32.08;63.29;100729.34;5078440;27;69975;-35
2021/11/05 05:43:01;;;;;;;;;;;;;;;32.09;63.38;100720.94;5097496;27;65492;-36
2021/11/05 05:45:31;;;;;;;;;;;;;;;32.11;63.20;100718.03;5098161;27;70069;-34
2021/11/05 05:48:01;;;;;;;;;;;;;;;32.12;63.24;100719.66;5095353;27;66636;-34
2021/11/05 05:50:32;;;;;;;;;;;;;;;32.13;63.57;100710.47;5080134;27;69243;-35
2021/11/05 05:53:02;;;;;;;;;;;;;;;32.13;63.18;100695.03;5097293;27;67108;-35
2021/11/05 05:55:33;;;;;;;;;;;;;;;32.16;63.10;100693.72;5096186;27;68958;-35
2021/11/05 05:58:03;;;;;;;;;;;;;;;32.18;62.97;100686.16;5096868;27;66299;-36
2021/11/05 06:00:35;;;;;;;;;;;;;;;32.18;63.16;100680.72;5079836;27;71232;-34
2021/11/05 06:03:10;;;;;;;;;;;;;;;32.20;63.29;100678.63;5095706;27;66197;-35
2021/11/05 06:05:42;;;;;;;;;;;;;;;32.23;63.23;100678.16;5064583;27;70167;-34
2021/11/05 06:08:12;;;;;;;;;;;;;;;32.24;63.00;100679.81;5095926;27;66096;-34
2021/11/05 06:10:48;;;;;;;;;;;;;;;32.25;63.33;100678.75;5104240;27;70494;-34
2021/11/05 06:13:18;;;;;;;;;;;;;;;32.27;63.08;100671.22;5087160;27;67554;-35
2021/11/05 06:15:52;;;;;;;;;;;;;;;32.29;63.18;100671.81;5096225;27;70335;-36
2021/11/05 06:18:28;;;;;;;;;;;;;;;32.30;63.15;100673.44;5098089;27;66610;-35
2021/11/05 06:21:01;;;;;;;;;;;;;;;32.31;63.29;100661.50;5096244;27;70036;-35
2021/11/05 06:23:31;;;;;;;;;;;;;;;32.31;63.09;100658.81;5097625;27;65540;-35
2021/11/05 06:26:01;;;;;;;;;;;;;;;32.33;63.30;100658.59;5096050;27;70349;-34
2021/11/05 06:28:32;;;;;;;;;;;;;;;32.34;63.05;100650.19;5097213;27;66658;-35
2021/11/05 06:31:07;;;;;;;;;;;;;;;32.35;63.44;100649.13;5095729;27;69360;-35
2021/11/05 06:33:39;;;;;;;;;;;;;;;32.37;63.51;100646.19;5097546;27;66433;-34
2021/11/05 06:36:13;;;;;;;;;;;;;;;32.38;63.16;100643.25;5094003;27;69731;-35
2021/11/05 06:38:43;;;;;;;;;;;;;;;32.41;62.35;100641.94;5097732;27;66410;-35
2021/11/05 06:41:15;;;;;;;;;;;;;;;32.44;63.09;100636.03;5078382;27;70275;-35
2021/11/05 06:43:50;;;;;;;;;;;;;;;32.47;63.36;100636.41;5097830;27;67409;-35
2021/11/05 06:46:23;;;;;;;;;;;;;;;32.47;63.27;100635.59;5095345;27;71471;-35
2021/11/05 06:49:06;;;;;;;;;;;;;;;32.49;63.01;100631.56;5095306;27;67005;-35
2021/11/05 06:51:37;;;;;;;;;;;;;;;32.52;62.93;100637.59;5096875;27;69833;-37
2021/11/05 06:54:08;;;;;;;;;;;;;;;32.54;63.03;100635.47;5093949;27;66612;-35
2021/11/05 06:56:48;;;;;;;;;;;;;;;32.55;62.77;100620.84;5092133;27;69481;-35
2021/11/05 06:59:20;;;;;;;;;;;;;;;32.56;62.88;100617.03;5096681;27;66359;-35
2021/11/05 07:01:54;;;;;;;;;;;;;;;32.58;62.75;100613.03;5095383;27;69508;-35
2021/11/05 07:04:40;;;;;;;;;;;;;;;32.60;63.04;100601.94;5077982;27;66368;-34
2021/11/05 07:07:17;;;;;;;;;;;;;;;32.63;62.92;100596.03;5087751;27;70023;-34
2021/11/05 07:10:06;;;;;;;;;;;;;;;32.65;62.88;100593.88;5092560;27;66651;-34
2021/11/05 07:12:51;;;;;;;;;;;;;;;32.64;62.79;100581.38;5095420;27;71038;-35
2021/11/05 07:15:34;;;;;;;;;;;;;;;32.70;62.92;100591.28;5097128;27;65801;-35
2021/11/05 07:18:19;;;;;;;;;;;;;;;32.71;62.63;100582.91;5094637;27;70618;-35
2021/11/05 07:20:56;;;;;;;;;;;;;;;32.72;62.98;100573.69;5088454;27;65692;-34
2021/11/05 07:23:39;;;;;;;;;;;;;;;32.74;62.73;100576.16;5095818;27;69694;-35
2021/11/05 07:26:22;;;;;;;;;;;;;;;32.75;62.52;100577.81;5094436;27;66778;-35
2021/11/05 07:28:56;;;;;;;;;;;;;;;32.78;62.37;100588.19;5094461;27;70754;-35
2021/11/05 07:31:29;;;;;;;;;;;;;;;32.80;62.60;100591.50;5093507;27;66218;-35
2021/11/05 07:34:16;;;;;;;;;;;;;;;32.82;62.82;100588.53;5095632;27;69687;-33
2021/11/05 07:37:00;;;;;;;;;;;;;;;32.83;62.46;100591.00;5095080;27;66363;-35
2021/11/05 07:39:33;;;;;;;;;;;;;;;32.84;62.40;100586.41;5096782;27;70283;-35
2021/11/05 07:42:23;;;;;;;;;;;;;;;32.83;62.73;100574.72;5077393;27;66208;-35
2021/11/05 07:45:09;;;;;;;;;;;;;;;32.86;62.10;100574.22;5076630;27;70594;-35
2021/11/05 07:47:49;;;;;;;;;;;;;;;32.86;62.34;100574.22;5094865;27;66175;-35
2021/11/05 07:50:33;;;;;;;;;;;;;;;32.88;62.42;100565.84;5066564;27;70441;-39
2021/11/05 07:53:15;;;;;;;;;;;;;;;32.89;62.44;100559.34;5092853;27;65472;-36
2021/11/05 07:56:06;;;;;;;;;;;;;;;32.91;62.18;100555.31;5091908;27;70396;-35
2021/11/05 07:58:56;;;;;;;;;;;;;;;32.90;62.22;100553.69;5082556;27;66349;-35
2021/11/05 08:01:29;;;;;;;;;;;;;;;32.93;62.39;100558.63;5096339;27;69229;-35
2021/11/05 08:04:00;;;;;;;;;;;;;;;32.94;62.19;100554.81;5062406;27;66177;-35
2021/11/05 08:06:33;;;;;;;;;;;;;;;32.96;61.99;100556.47;5078830;27;70237;-35
2021/11/05 08:09:05;;;;;;;;;;;;;;;32.96;61.98;100561.91;5061750;27;67121;-36
2021/11/05 08:11:41;;;;;;;;;;;;;;;32.97;62.27;100552.69;5077665;27;69949;-35
2021/11/05 08:14:18;;;;;;;;;;;;;;;33.00;62.04;100558.50;5095765;27;65542;-35
2021/11/05 08:16:52;;;;;;;;;;;;;;;33.02;61.87;100556.38;5076533;27;69092;-35
2021/11/05 08:19:27;;;;;;;;;;;;;;;33.03;62.03;100557.19;5060728;27;66310;-36
2021/11/05 08:21:59;;;;;;;;;;;;;;;33.05;61.80;100563.22;5087546;27;69531;-35
2021/11/05 08:24:51;;;;;;;;;;;;;;;33.06;61.85;100556.69;5095536;27;65605;-36
2021/11/05 08:27:51;;;;;;;;;;;;;;;33.08;61.58;100551.84;5031343;27;69989;-35
2021/11/05 08:30:31;;;;;;;;;;;;;;;33.10;61.87;100552.44;5094270;27;65662;-36
2021/11/05 08:33:02;;;;;;;;;;;;;;;33.11;61.53;100548.66;5096237;27;69368;-35
2021/11/05 08:35:49;;;;;;;;;;;;;;;33.13;61.38;100546.53;5094003;27;67466;-36
2021/11/05 08:38:24;;;;;;;;;;;;;;;33.13;61.56;100541.09;5093871;27;69188;-36
2021/11/05 08:41:07;;;;;;;;;;;;;;;33.16;61.71;100543.31;5077874;27;65230;-35
2021/11/05 08:43:42;;;;;;;;;;;;;;;33.17;61.51;100542.22;5083071;27;69613;-36
2021/11/05 08:46:16;;;;;;;;;;;;;;;33.19;61.52;100540.09;5098294;27;65891;-35
2021/11/05 08:49:10;;;;;;;;;;;;;;;33.21;61.40;100526.25;5098767;27;70080;-35
2021/11/05 08:51:42;;;;;;;;;;;;;;;33.22;61.13;100528.75;5079640;27;66147;-35
2021/11/05 08:54:15;;;;;;;;;;;;;;;33.24;61.26;100536.63;5084597;27;68777;-35
2021/11/05 08:56:46;;;;;;;;;;;;;;;33.25;61.40;100539.13;5096953;27;65705;-34
2021/11/05 08:59:21;;;;;;;;;;;;;;;33.27;61.52;100530.72;5080973;27;70322;-34
2021/11/05 09:01:55;;;;;;;;;;;;;;;33.26;61.28;100532.59;5093834;27;67091;-35
2021/11/05 09:04:27;;;;;;;;;;;;;;;33.28;61.40;100535.91;5097296;27;68990;-35
2021/11/05 09:07:02;;;;;;;;;;;;;;;33.29;61.33;100534.00;5095290;27;66744;-36
2021/11/05 09:09:36;;;;;;;;;;;;;;;33.29;61.32;100517.69;5086565;27;70258;-35
2021/11/05 09:12:23;;;;;;;;;;;;;;;33.28;60.92;100511.44;5091666;27;66692;-36
2021/11/05 09:14:54;;;;;;;;;;;;;;;33.29;60.99;100518.56;5096234;27;70546;-34
2021/11/05 09:17:25;;;;;;;;;;;;;;;33.30;61.22;100525.63;5106731;27;67296;-35
2021/11/05 09:20:03;;;;;;;;;;;;;;;33.30;61.14;100536.50;5087055;27;70223;-35
2021/11/05 09:22:35;;;;;;;;;;;;;;;33.30;61.09;100536.50;5074196;27;66078;-35
2021/11/05 09:25:06;;;;;;;;;;;;;;;33.30;61.08;100531.06;5096140;27;70274;-36
2021/11/05 09:27:39;;;;;;;;;;;;;;;33.30;60.91;100531.06;5092196;27;66897;-36
2021/11/05 09:30:13;;;;;;;;;;;;;;;33.30;61.13;100528.34;5065504;27;69965;-36
2021/11/05 09:32:44;;;;;;;;;;;;;;;33.32;61.29;100530.78;5090856;27;65577;-36
2021/11/05 09:35:17;;;;;;;;;;;;;;;33.30;61.36;100533.78;5096267;27;70897;-36
2021/11/05 09:37:51;;;;;;;;;;;;;;;33.32;61.03;100538.94;5082413;27;65318;-35
2021/11/05 09:40:24;;;;;;;;;;;;;;;33.30;61.13;100536.50;5028116;28;69969;-36
2021/11/05 09:42:57;;;;;;;;;;;;;;;33.29;61.14;100534.84;5089119;27;66327;-35
2021/11/05 09:45:31;;;;;;;;;;;;;;;33.30;61.39;100541.94;5081611;27;70303;-35
2021/11/05 09:48:04;;;;;;;;;;;;;;;33.29;61.29;100550.31;5074191;27;66037;-36
2021/11/05 09:50:36;;;;;;;;;;;;;;;33.28;61.04;100554.94;5082621;27;70426;-35
2021/11/05 09:53:15;;;;;;;;;;;;;;;33.25;61.01;100555.44;5079854;27;67251;-36
2021/11/05 09:55:46;;;;;;;;;;;;;;;33.27;61.06;100558.72;5097206;27;70502;-36
2021/11/05 09:58:17;;;;;;;;;;;;;;;33.12;61.49;100531.25;5097089;27;66526;-36
2021/11/05 10:00:48;;;;;;;;;;;;;;;33.26;61.06;100554.34;5068968;27;70227;-35
2021/11/05 10:03:21;;;;;;;;;;;;;;;33.25;61.23;100560.88;5097418;27;66116;-36
2021/11/05 10:05:53;;;;;;;;;;;;;;;33.24;61.04;100558.38;5099541;27;70146;-36
2021/11/05 10:08:27;;;;;;;;;;;;;;;33.23;61.20;100562.19;5103028;27;65922;-37
2021/11/05 10:11:20;;;;;;;;;;;;;;;33.21;61.14;100565.16;5079253;27;69960;-35
2021/11/05 10:13:59;;;;;;;;;;;;;;;33.20;61.26;100565.38;5107008;27;66184;-35
2021/11/05 10:16:32;;;;;;;;;;;;;;;33.19;60.67;100566.47;5067736;27;69521;-34
2021/11/05 10:19:07;;;;;;;;;;;;;;;33.19;60.85;100572.72;5076476;27;65325;-35
2021/11/05 10:21:40;;;;;;;;;;;;;;;33.17;61.12;100574.03;5075517;27;69510;-36
2021/11/05 10:24:19;;;;;;;;;;;;;;;33.15;61.11;100575.09;5084775;27;66503;-35
2021/11/05 10:26:53;;;;;;;;;;;;;;;33.29;59.91;100578.34;5095597;27;68459;-35
2021/11/05 10:29:44;;;;;;;;;;;;;;;33.44;59.32;100566.91;5084266;27;66025;-35
2021/11/05 10:32:40;;;;;;;;;;;;;;;33.38;59.67;100570.63;5085846;27;70248;-35
2021/11/05 10:35:26;;;;;;;;;;;;;;;33.26;60.26;100567.94;5079459;27;66578;-36
2021/11/05 10:38:04;;;;;;;;;;;;;;;33.19;60.70;100567.28;5075372;27;69992;-36
2021/11/05 10:40:43;;;;;;;;;;;;;;;32.90;62.02;100561.81;5093991;27;65513;-35
2021/11/05 10:43:15;;;;;;;;;;;;;;;32.75;62.75;100571.56;5093116;27;70917;-35
2021/11/05 10:45:47;;;;;;;;;;;;;;;32.76;62.98;100568.59;5078252;27;66288;-36
2021/11/05 10:48:22;;;;;;;;;;;;;;;32.78;62.28;100571.88;5093537;27;70400;-36
2021/11/05 10:51:01;;;;;;;;;;;;;;;32.81;62.41;100571.41;5076781;27;66339;-36
2021/11/05 10:53:33;;;;;;;;;;;;;;;32.84;62.40;100570.09;5070179;27;70265;-36
2021/11/05 10:56:04;;;;;;;;;;;;;;;32.85;62.30;100567.16;5092243;27;66337;-36
2021/11/05 10:58:42;;;;;;;;;;;;;;;32.87;61.90;100564.19;5085035;27;70800;-36
2021/11/05 11:01:15;;;;;;;;;;;;;;;32.88;62.00;100561.22;5091239;27;66496;-36
2021/11/05 11:04:08;;;;;;;;;;;;;;;32.89;61.94;100573.75;5077909;27;70311;-36
2021/11/05 11:06:46;;;;;;;;;;;;;;;32.91;62.38;100566.19;5092558;27;66951;-38
2021/11/05 11:09:19;;;;;;;;;;;;;;;32.91;62.25;100559.94;5094738;27;69312;-36
2021/11/05 11:11:52;;;;;;;;;;;;;;;32.91;62.02;100562.66;5091390;27;65489;-35
2021/11/05 11:14:31;;;;;;;;;;;;;;;32.91;62.13;100563.47;5090287;27;69026;-36
2021/11/05 11:17:10;;;;;;;;;;;;;;;32.91;62.16;100560.75;5085626;27;66650;-35
2021/11/05 11:19:46;;;;;;;;;;;;;;;32.92;62.28;100561.56;5067684;27;69983;-36
2021/11/05 11:22:19;;;;;;;;;;;;;;;32.92;62.38;100567.00;5086923;27;65326;-36
2021/11/05 11:24:50;;;;;;;;;;;;;;;32.90;62.18;100569.97;5089869;27;69575;-35
2021/11/05 11:27:24;;;;;;;;;;;;;;;32.91;61.95;100571.63;5086171;27;66119;-36
2021/11/05 11:29:57;;;;;;;;;;;;;;;32.91;62.16;100568.91;5083782;27;70002;-36
2021/11/05 11:32:31;;;;;;;;;;;;;;;32.89;62.24;100579.19;5083977;27;65747;-35
2021/11/05 11:35:04;;;;;;;;;;;;;;;32.88;62.11;100582.97;5080338;27;70171;-36
2021/11/05 11:37:37;;;;;;;;;;;;;;;32.86;62.04;100579.66;5086510;27;65529;-35
2021/11/05 11:40:09;;;;;;;;;;;;;;;32.86;61.98;100585.09;5100879;27;70034;-36
2021/11/05 11:42:40;;;;;;;;;;;;;;;32.86;61.87;100585.09;5096878;27;65794;-36
2021/11/05 11:45:13;;;;;;;;;;;;;;;32.86;61.89;100593.25;5105828;27;70137;-36
2021/11/05 11:47:48;;;;;;;;;;;;;;;32.84;62.06;100595.38;5101035;27;66274;-37
2021/11/05 11:50:27;;;;;;;;;;;;;;;32.83;62.51;100596.44;5087422;27;70383;-35
2021/11/05 11:53:06;;;;;;;;;;;;;;;32.81;62.80;100592.31;5094806;27;67285;-37
2021/11/05 11:55:41;;;;;;;;;;;;;;;33.25;61.37;100600.81;5091510;27;70026;-34
2021/11/05 11:58:20;;;;;;;;;;;;;;;33.17;61.53;100604.75;5060719;27;66365;-35
2021/11/05 12:00:51;;;;;;;;;;;;;;;33.08;62.12;100608.94;5078239;27;69339;-35
2021/11/05 12:03:31;;;;;;;;;;;;;;;32.85;63.06;100610.63;5080780;27;64930;-36
2021/11/05 12:06:03;;;;;;;;;;;;;;;32.79;63.36;100611.59;5064905;27;70068;-35
2021/11/05 12:08:37;;;;;;;;;;;;;;;32.80;63.55;100634.97;5070371;27;66351;-34
2021/11/05 12:11:17;;;;;;;;;;;;;;;32.74;63.75;100629.66;5078430;27;69357;-38
2021/11/05 12:14:06;;;;;;;;;;;;;;;32.73;63.80;100628.81;5095938;27;65729;-37
2021/11/05 12:16:42;;;;;;;;;;;;;;;32.71;64.16;100631.78;5045255;27;69743;-38
2021/11/05 12:19:17;;;;;;;;;;;;;;;32.70;63.74;100629.31;5087436;27;66348;-35
2021/11/05 12:22:07;;;;;;;;;;;;;;;32.68;63.91;100632.28;5065198;27;70078;-36
2021/11/05 12:24:45;;;;;;;;;;;;;;;32.70;63.23;100637.44;5087879;27;66515;-38
2021/11/05 12:27:25;;;;;;;;;;;;;;;32.72;63.43;100635.31;5063832;27;70229;-36
2021/11/05 12:30:00;;;;;;;;;;;;;;;32.61;63.34;100638.88;5081846;27;65754;-35
2021/11/05 12:32:46;;;;;;;;;;;;;;;32.34;62.92;100644.75;5051541;27;69254;-36
2021/11/05 12:35:30;;;;;;;;;;;;;;;32.22;62.29;100660.22;5080967;27;65647;-35
2021/11/05 12:38:22;;;;;;;;;;;;;;;32.05;61.19;100668.22;5064905;27;70582;-36
2021/11/05 12:41:23;;;;;;;;;;;;;;;31.95;60.55;100671.50;5081790;27;66556;-36
2021/11/05 12:44:14;;;;;;;;;;;;;;;31.79;60.89;100680.28;5094112;27;70254;-36
2021/11/05 12:46:48;;;;;;;;;;;;;;;31.78;59.69;100692.19;5095721;27;67083;-36
2021/11/05 12:49:34;;;;;;;;;;;;;;;31.71;59.93;100696.88;5076583;27;69825;-35
2021/11/05 12:52:24;;;;;;;;;;;;;;;31.66;60.70;100699.47;5095427;27;65910;-36
2021/11/05 12:55:12;;;;;;;;;;;;;;;31.59;58.95;100703.09;5081593;27;69224;-36
2021/11/05 12:58:06;;;;;;;;;;;;;;;31.54;58.28;100707.56;5079259;27;66164;-36
2021/11/05 13:00:56;;;;;;;;;;;;;;;31.49;57.87;100716.34;5077566;27;69565;-35
2021/11/05 13:03:47;;;;;;;;;;;;;;;31.41;57.77;100707.72;5078061;27;66305;-35
2021/11/05 13:06:36;;;;;;;;;;;;;;;31.38;57.54;100709.00;5071636;27;70170;-35
2021/11/05 13:09:26;;;;;;;;;;;;;;;31.33;57.01;100722.38;5079007;27;65573;-36
2021/11/05 13:12:35;;;;;;;;;;;;;;;31.29;56.19;100721.19;5096058;27;70429;-34
2021/11/05 13:15:24;;;;;;;;;;;;;;;31.25;56.33;100726.22;5082053;27;66278;-34
2021/11/05 13:18:15;;;;;;;;;;;;;;;31.21;55.52;100745.88;5086244;27;70124;-34
2021/11/05 13:21:21;;;;;;;;;;;;;;;31.20;56.42;100758.56;5086013;27;66314;-34
2021/11/05 13:24:14;;;;;;;;;;;;;;;31.13;55.90;100766.78;5096731;27;69496;-36
2021/11/05 13:27:30;;;;;;;;;;;;;;;31.07;55.85;100761.44;5094537;27;66540;-36
2021/11/05 13:30:32;;;;;;;;;;;;;;;31.10;55.24;100766.41;5094291;27;70135;-35
2021/11/05 13:34:07;;;;;;;;;;;;;;;31.04;54.43;100776.28;5092681;27;66241;-34
2021/11/05 13:37:13;;;;;;;;;;;;;;;31.06;55.10;100771.44;5100538;27;70368;-34
2021/11/05 13:40:27;;;;;;;;;;;;;;;31.04;54.97;100776.28;5095042;27;66972;-34